createdAt,value
2018-12-16T00:00:46.896Z,-0.40
2018-12-16T00:03:15.214Z,-0.50
2018-12-16T00:05:43.572Z,-0.40
2018-12-16T00:08:11.873Z,-0.50
2018-12-16T00:10:40.242Z,-0.50
2018-12-16T00:13:09.221Z,-0.40
2018-12-16T00:15:37.563Z,-0.40
2018-12-16T00:18:05.938Z,-0.40
2018-12-16T00:20:34.256Z,-0.40
2018-12-16T00:23:03.218Z,-0.40
2018-12-16T00:25:31.902Z,-0.40
2018-12-16T00:28:00.277Z,-0.30
2018-12-16T00:30:28.617Z,-0.30
2018-12-16T00:32:56.970Z,-0.30
2018-12-16T00:35:25.501Z,-0.30
2018-12-16T00:37:53.842Z,-0.30
2018-12-16T00:40:22.361Z,-0.30
2018-12-16T00:42:51.018Z,-0.30
2018-12-16T00:45:20.584Z,-0.30
2018-12-16T00:47:52.317Z,-0.30
2018-12-16T00:53:01.672Z,-0.30
2018-12-16T00:55:29.993Z,-0.30
2018-12-16T00:57:58.647Z,-0.30
2018-12-16T01:00:28.361Z,-0.20
2018-12-16T01:02:56.677Z,-0.20
2018-12-16T01:08:25.735Z,-0.20
2018-12-16T01:10:54.034Z,-0.20
2018-12-16T01:13:22.328Z,-0.20
2018-12-16T01:15:50.983Z,-0.20
2018-12-16T01:18:19.589Z,-0.20
2018-12-16T01:20:47.913Z,-0.20
2018-12-16T01:23:16.281Z,-0.20
2018-12-16T01:25:44.895Z,-0.10
2018-12-16T01:28:13.539Z,-0.10
2018-12-16T01:30:46.085Z,-0.10
2018-12-16T01:33:14.401Z,-0.10
2018-12-16T01:35:43.387Z,-0.10
2018-12-16T01:38:11.679Z,-0.10
2018-12-16T01:40:40.032Z,-0.10
2018-12-16T01:43:08.348Z,-0.10
2018-12-16T01:45:37.762Z,-0.10
2018-12-16T01:50:40.925Z,0.00
2018-12-16T01:59:01.106Z,0.00
2018-12-16T02:01:29.732Z,0.00
2018-12-16T02:03:58.017Z,0.00
2018-12-16T02:06:26.317Z,0.00
2018-12-16T02:08:55.681Z,0.00
2018-12-16T02:11:24.014Z,0.00
2018-12-16T02:13:52.336Z,0.00
2018-12-16T02:16:20.663Z,0.00
2018-12-16T02:18:49.233Z,0.00
2018-12-16T02:21:18.544Z,0.00
2018-12-16T02:23:47.130Z,0.00
2018-12-16T02:26:15.423Z,0.00
2018-12-16T02:28:43.755Z,0.00
2018-12-16T02:31:12.118Z,0.00
2018-12-16T02:33:40.694Z,0.10
2018-12-16T02:36:09.030Z,0.10
2018-12-16T02:38:38.266Z,0.00
2018-12-16T02:41:06.586Z,0.00
2018-12-16T02:46:28.154Z,0.10
2018-12-16T02:48:56.964Z,0.10
2018-12-16T02:51:25.751Z,0.10
2018-12-16T02:53:54.149Z,0.10
2018-12-16T02:56:22.800Z,0.10
2018-12-16T02:58:51.342Z,0.10
2018-12-16T03:01:20.053Z,0.10
2018-12-16T03:03:48.670Z,0.10
2018-12-16T03:06:17.019Z,0.20
2018-12-16T03:08:45.633Z,0.20
2018-12-16T03:11:14.226Z,0.20
2018-12-16T03:13:45.611Z,0.20
2018-12-16T03:16:17.764Z,0.10
2018-12-16T03:18:46.108Z,0.20
2018-12-16T03:21:15.456Z,0.20
2018-12-16T03:23:43.757Z,0.20
2018-12-16T03:31:58.970Z,0.20
2018-12-16T03:34:27.303Z,0.20
2018-12-16T03:36:55.626Z,0.20
2018-12-16T03:39:23.940Z,0.20
2018-12-16T03:41:52.285Z,0.20
2018-12-16T03:44:20.621Z,0.30
2018-12-16T03:46:49.343Z,0.30
2018-12-16T03:49:17.985Z,0.30
2018-12-16T03:54:41.142Z,0.30
2018-12-16T03:57:10.123Z,0.30
2018-12-16T03:59:38.744Z,0.30
2018-12-16T04:04:41.952Z,0.30
2018-12-16T04:07:11.376Z,0.30
2018-12-16T04:09:39.970Z,0.30
2018-12-16T04:12:08.297Z,0.30
2018-12-16T04:14:37.399Z,0.30
2018-12-16T04:17:06.063Z,0.30
2018-12-16T04:19:34.360Z,0.30
2018-12-16T04:22:03.935Z,0.30
2018-12-16T04:24:32.273Z,0.30
2018-12-16T04:27:01.375Z,0.30
2018-12-16T04:29:30.358Z,0.30
2018-12-16T04:31:58.678Z,0.30
2018-12-16T04:34:27.061Z,0.30
2018-12-16T04:36:55.434Z,0.30
2018-12-16T04:39:23.845Z,0.30
2018-12-16T04:41:52.225Z,0.30
2018-12-16T04:44:21.040Z,0.40
2018-12-16T04:46:49.368Z,0.30
2018-12-16T04:49:17.780Z,0.30
2018-12-16T04:51:46.105Z,0.30
2018-12-16T04:54:14.458Z,0.40
2018-12-16T04:56:42.784Z,0.40
2018-12-16T04:59:12.731Z,0.40
2018-12-16T05:01:41.068Z,0.40
2018-12-16T05:04:09.369Z,0.40
2018-12-16T05:06:38.267Z,0.40
2018-12-16T05:09:08.438Z,0.40
2018-12-16T05:11:37.045Z,0.40
2018-12-16T05:14:05.359Z,0.40
2018-12-16T05:16:34.422Z,0.40
2018-12-16T05:19:03.006Z,0.40
2018-12-16T05:21:31.318Z,0.40
2018-12-16T05:23:59.654Z,0.50
2018-12-16T05:26:27.977Z,0.40
2018-12-16T05:28:56.649Z,0.40
2018-12-16T05:31:25.307Z,0.50
2018-12-16T05:33:53.905Z,0.50
2018-12-16T05:36:22.474Z,0.50
2018-12-16T05:38:51.098Z,0.50
2018-12-16T05:50:03.358Z,0.50
2018-12-16T05:52:32.325Z,0.50
2018-12-16T05:55:00.678Z,0.50
2018-12-16T05:57:29.005Z,0.50
2018-12-16T05:59:57.669Z,0.50
2018-12-16T06:02:26.215Z,0.50
2018-12-16T06:04:55.279Z,0.50
2018-12-16T06:07:23.611Z,0.50
2018-12-16T06:09:53.069Z,0.50
2018-12-16T06:12:21.642Z,0.60
2018-12-16T06:14:50.142Z,0.60
2018-12-16T06:17:18.812Z,0.60
2018-12-16T06:19:47.598Z,0.60
2018-12-16T06:22:15.937Z,0.60
2018-12-16T06:24:44.597Z,0.60
2018-12-16T06:35:53.877Z,0.60
2018-12-16T06:38:25.545Z,0.60
2018-12-16T06:40:53.896Z,0.60
2018-12-16T06:43:22.416Z,0.60
2018-12-16T06:45:50.730Z,0.70
2018-12-16T06:48:19.014Z,0.70
2018-12-16T06:50:48.590Z,0.70
2018-12-16T06:53:17.678Z,0.70
2018-12-16T06:55:46.011Z,0.70
2018-12-16T06:58:14.366Z,0.70
2018-12-16T07:00:43.391Z,0.70
2018-12-16T07:03:11.991Z,0.70
2018-12-16T07:05:40.614Z,0.80
2018-12-16T07:08:08.925Z,0.80
2018-12-16T07:10:37.605Z,0.80
2018-12-16T07:13:05.930Z,0.80
2018-12-16T07:15:39.824Z,0.80
2018-12-16T07:18:08.255Z,0.80
2018-12-16T07:20:36.787Z,0.80
2018-12-16T07:23:05.124Z,0.80
2018-12-16T07:25:33.932Z,0.80
2018-12-16T07:28:02.292Z,0.80
2018-12-16T07:30:31.070Z,0.80
2018-12-16T07:33:11.865Z,0.80
2018-12-16T07:35:40.763Z,0.90
2018-12-16T07:38:10.022Z,0.80
2018-12-16T07:40:38.677Z,0.90
2018-12-16T07:43:07.004Z,0.90
2018-12-16T07:45:36.252Z,0.90
2018-12-16T07:48:04.951Z,0.90
2018-12-16T07:50:36.759Z,0.90
2018-12-16T07:53:06.179Z,0.90
2018-12-16T07:55:35.071Z,0.90
2018-12-16T07:58:03.872Z,0.90
2018-12-16T08:00:32.457Z,0.90
2018-12-16T08:03:02.793Z,1.00
2018-12-16T08:05:31.104Z,1.00
2018-12-16T08:07:59.455Z,1.00
2018-12-16T08:10:30.920Z,1.00
2018-12-16T08:12:59.246Z,1.00
2018-12-16T08:15:27.565Z,1.00
2018-12-16T08:17:55.891Z,1.00
2018-12-16T08:20:24.230Z,1.00
2018-12-16T08:22:53.477Z,1.10
2018-12-16T08:25:22.166Z,1.10
2018-12-16T08:27:50.515Z,1.10
2018-12-16T08:30:19.198Z,1.10
2018-12-16T08:32:47.815Z,1.10
2018-12-16T08:35:17.983Z,1.10
2018-12-16T08:37:56.209Z,1.10
2018-12-16T08:40:24.833Z,1.10
2018-12-16T08:42:53.585Z,1.20
2018-12-16T08:45:22.134Z,1.10
2018-12-16T08:47:50.526Z,1.20
2018-12-16T08:50:18.871Z,1.20
2018-12-16T08:52:47.191Z,1.20
2018-12-16T08:55:16.138Z,1.20
2018-12-16T08:57:44.468Z,1.20
2018-12-16T09:00:16.236Z,1.20
2018-12-16T09:02:54.902Z,1.20
2018-12-16T09:05:24.167Z,1.30
2018-12-16T09:07:52.507Z,1.30
2018-12-16T09:10:20.846Z,1.30
2018-12-16T09:12:52.552Z,1.30
2018-12-16T09:15:21.105Z,1.40
2018-12-16T09:20:30.295Z,1.50
2018-12-16T09:23:00.404Z,1.50
2018-12-16T09:25:29.491Z,1.50
2018-12-16T09:27:57.905Z,1.60
2018-12-16T09:30:26.584Z,1.60
2018-12-16T09:32:58.248Z,1.60
2018-12-16T09:35:27.118Z,1.60
2018-12-16T09:37:55.447Z,1.60
2018-12-16T09:40:24.233Z,1.70
2018-12-16T09:42:53.611Z,1.70
2018-12-16T09:45:22.309Z,1.70
2018-12-16T09:47:51.314Z,1.80
2018-12-16T09:50:20.420Z,1.80
2018-12-16T09:52:49.126Z,1.80
2018-12-16T09:55:17.796Z,1.80
2018-12-16T09:57:47.068Z,1.80
2018-12-16T10:00:15.748Z,1.90
2018-12-16T10:02:44.274Z,1.80
2018-12-16T10:05:13.113Z,1.90
2018-12-16T10:07:42.266Z,1.90
2018-12-16T10:10:13.178Z,1.90
2018-12-16T10:12:45.816Z,1.90
2018-12-16T10:15:14.206Z,1.90
2018-12-16T10:17:52.226Z,1.90
2018-12-16T10:20:20.803Z,2.00
2018-12-16T10:22:49.146Z,2.00
2018-12-16T10:25:17.823Z,2.00
2018-12-16T10:27:46.163Z,2.10
2018-12-16T10:30:14.622Z,2.10
2018-12-16T10:32:45.388Z,2.10
2018-12-16T10:35:14.107Z,2.10
2018-12-16T10:37:42.461Z,2.20
2018-12-16T10:40:11.555Z,2.20
2018-12-16T10:42:40.624Z,2.20
2018-12-16T10:45:10.284Z,2.20
2018-12-16T10:50:13.806Z,2.20
2018-12-16T10:52:42.190Z,2.30
2018-12-16T10:55:11.184Z,2.30
2018-12-16T10:57:39.599Z,2.40
2018-12-16T11:00:12.429Z,2.40
2018-12-16T11:02:41.004Z,2.40
2018-12-16T11:05:09.956Z,2.40
2018-12-16T11:07:38.980Z,2.40
2018-12-16T11:10:07.789Z,2.40
2018-12-16T11:12:37.166Z,2.50
2018-12-16T11:15:07.746Z,2.50
2018-12-16T11:17:36.148Z,2.60
2018-12-16T11:20:05.812Z,2.50
2018-12-16T11:22:34.949Z,2.60
2018-12-16T11:25:06.125Z,2.60
2018-12-16T11:27:35.054Z,2.60
2018-12-16T11:30:04.694Z,2.70
2018-12-16T11:32:33.045Z,2.70
2018-12-16T11:35:01.523Z,2.70
2018-12-16T11:37:34.660Z,2.70
2018-12-16T11:40:03.339Z,2.70
2018-12-16T11:42:31.977Z,2.80
2018-12-16T11:45:00.382Z,2.80
2018-12-16T11:47:28.708Z,2.80
2018-12-16T11:50:09.252Z,2.80
2018-12-16T11:52:37.583Z,2.80
2018-12-16T11:55:12.897Z,2.80
2018-12-16T11:57:44.007Z,2.90
2018-12-16T12:00:13.116Z,2.90
2018-12-16T12:02:41.984Z,2.90
2018-12-16T12:05:10.384Z,2.90
2018-12-16T12:07:38.975Z,2.90
2018-12-16T12:10:08.357Z,3.00
2018-12-16T12:12:37.073Z,3.00
2018-12-16T12:15:05.513Z,3.00
2018-12-16T12:17:34.181Z,3.00
2018-12-16T12:20:03.048Z,3.00
2018-12-16T12:22:33.199Z,3.00
2018-12-16T12:25:01.581Z,3.00
2018-12-16T12:27:29.984Z,3.00
2018-12-16T12:30:07.647Z,3.10
2018-12-16T12:32:36.778Z,3.00
2018-12-16T12:35:06.286Z,3.00
2018-12-16T12:37:35.310Z,3.00
2018-12-16T12:40:05.570Z,3.00
2018-12-16T12:42:37.256Z,3.00
2018-12-16T12:45:06.733Z,3.00
2018-12-16T12:47:36.300Z,3.00
2018-12-16T12:50:06.141Z,3.00
2018-12-16T12:52:34.491Z,3.00
2018-12-16T12:55:03.353Z,3.00
2018-12-16T12:57:31.738Z,3.00
2018-12-16T13:00:01.575Z,3.00
2018-12-16T13:02:30.134Z,3.00
2018-12-16T13:05:02.106Z,3.00
2018-12-16T13:07:30.980Z,3.00
2018-12-16T13:09:59.540Z,3.10
2018-12-16T13:12:31.381Z,3.10
2018-12-16T13:15:00.023Z,3.10
2018-12-16T13:17:28.601Z,3.10
2018-12-16T13:19:57.321Z,3.10
2018-12-16T13:22:35.285Z,3.10
2018-12-16T13:25:14.891Z,3.20
2018-12-16T13:27:43.502Z,3.20
2018-12-16T13:30:11.846Z,3.10
2018-12-16T13:32:40.603Z,3.10
2018-12-16T13:35:09.857Z,3.10
2018-12-16T13:37:46.051Z,3.10
2018-12-16T13:40:14.834Z,3.10
2018-12-16T13:42:43.406Z,3.10
2018-12-16T13:45:12.159Z,3.10
2018-12-16T13:47:40.493Z,3.10
2018-12-16T13:50:16.462Z,3.20
2018-12-16T13:52:44.829Z,3.20
2018-12-16T13:55:13.197Z,3.20
2018-12-16T13:57:42.594Z,3.20
2018-12-16T14:00:14.722Z,3.20
2018-12-16T14:02:43.216Z,3.20
2018-12-16T14:05:11.861Z,3.20
2018-12-16T14:07:40.515Z,3.30
2018-12-16T14:10:09.419Z,3.20
2018-12-16T14:12:37.819Z,3.20
2018-12-16T14:15:08.404Z,3.20
2018-12-16T14:17:37.521Z,3.30
2018-12-16T14:20:07.880Z,3.20
2018-12-16T14:22:36.232Z,3.20
2018-12-16T14:25:06.204Z,3.20
2018-12-16T14:27:44.029Z,3.20
2018-12-16T14:30:14.554Z,3.20
2018-12-16T14:32:48.002Z,3.20
2018-12-16T14:35:17.762Z,3.20
2018-12-16T14:37:50.142Z,3.20
2018-12-16T14:40:19.664Z,3.20
2018-12-16T14:42:48.367Z,3.20
2018-12-16T14:45:16.861Z,3.10
2018-12-16T14:47:45.749Z,3.10
2018-12-16T14:50:15.244Z,3.10
2018-12-16T14:52:44.227Z,3.10
2018-12-16T14:55:16.094Z,3.20
2018-12-16T14:57:45.411Z,3.20
2018-12-16T15:00:14.214Z,3.20
2018-12-16T15:02:42.967Z,3.10
2018-12-16T15:05:11.438Z,3.10
2018-12-16T15:07:40.134Z,3.10
2018-12-16T15:10:10.866Z,3.10
2018-12-16T15:12:39.582Z,3.00
2018-12-16T15:15:09.146Z,3.00
2018-12-16T15:17:42.927Z,3.00
2018-12-16T15:20:20.916Z,3.00
2018-12-16T15:22:49.625Z,3.00
2018-12-16T15:28:10.846Z,3.00
2018-12-16T15:30:42.293Z,2.90
2018-12-16T15:33:11.004Z,3.00
2018-12-16T15:35:48.703Z,2.90
2018-12-16T15:38:18.076Z,2.90
2018-12-16T15:40:46.405Z,2.90
2018-12-16T15:43:14.755Z,3.00
2018-12-16T15:45:43.187Z,3.00
2018-12-16T15:48:11.691Z,3.00
2018-12-16T15:50:52.719Z,3.00
2018-12-16T15:53:21.076Z,3.00
2018-12-16T15:55:49.828Z,3.00
2018-12-16T15:58:18.902Z,3.00
2018-12-16T16:00:47.271Z,3.00
2018-12-16T16:03:17.070Z,3.00
2018-12-16T16:05:46.212Z,3.00
2018-12-16T16:08:16.609Z,3.00
2018-12-16T16:10:45.029Z,3.00
2018-12-16T16:13:13.619Z,3.00
2018-12-16T16:15:52.897Z,3.10
2018-12-16T16:18:21.283Z,3.00
2018-12-16T16:20:50.421Z,3.00
2018-12-16T16:23:19.485Z,3.10
2018-12-16T16:25:48.015Z,3.10
2018-12-16T16:28:16.809Z,3.00
2018-12-16T16:30:45.573Z,3.00
2018-12-16T16:33:14.219Z,3.10
2018-12-16T16:35:43.278Z,3.10
2018-12-16T16:38:12.255Z,3.10
2018-12-16T16:40:41.193Z,3.10
2018-12-16T16:43:10.165Z,3.10
2018-12-16T16:45:38.614Z,3.10
2018-12-16T16:48:06.951Z,3.10
2018-12-16T16:50:35.308Z,3.10
2018-12-16T16:53:04.189Z,3.10
2018-12-16T16:55:32.738Z,3.10
2018-12-16T16:58:01.537Z,3.10
2018-12-16T17:00:29.869Z,3.10
2018-12-16T17:03:02.425Z,3.10
2018-12-16T17:11:18.294Z,3.20
2018-12-16T17:13:47.835Z,3.20
2018-12-16T17:16:16.182Z,3.20
2018-12-16T17:18:45.043Z,3.20
2018-12-16T17:21:13.398Z,3.20
2018-12-16T17:23:42.529Z,3.30
2018-12-16T17:26:11.286Z,3.30
2018-12-16T17:28:39.869Z,3.30
2018-12-16T17:31:08.288Z,3.30
2018-12-16T17:33:36.628Z,3.30
2018-12-16T17:36:05.296Z,3.30
2018-12-16T17:38:34.383Z,3.30
2018-12-16T17:41:02.936Z,3.30
2018-12-16T17:43:31.573Z,3.30
2018-12-16T17:46:00.953Z,3.30
2018-12-16T17:48:29.280Z,3.40
2018-12-16T17:50:57.603Z,3.40
2018-12-16T17:53:26.004Z,3.40
2018-12-16T17:56:06.720Z,3.40
2018-12-16T17:58:35.081Z,3.40
2018-12-16T18:01:03.398Z,3.40
2018-12-16T18:03:32.299Z,3.40
2018-12-16T18:06:00.939Z,3.40
2018-12-16T18:08:29.337Z,3.40
2018-12-16T18:10:57.668Z,3.50
2018-12-16T18:13:26.210Z,3.50
2018-12-16T18:15:54.721Z,3.50
2018-12-16T18:18:23.305Z,3.50
2018-12-16T18:20:52.285Z,3.60
2018-12-16T18:23:20.684Z,3.60
2018-12-16T18:25:49.394Z,3.60
2018-12-16T18:28:18.525Z,3.60
2018-12-16T18:30:47.981Z,3.60
2018-12-16T18:33:16.673Z,3.70
2018-12-16T18:35:45.317Z,3.70
2018-12-16T18:38:13.646Z,3.70
2018-12-16T18:40:46.402Z,3.80
2018-12-16T18:43:15.303Z,3.80
2018-12-16T18:45:43.869Z,3.80
2018-12-16T18:48:12.272Z,3.80
2018-12-16T18:50:40.896Z,3.80
2018-12-16T18:53:10.289Z,3.90
2018-12-16T18:58:32.994Z,3.90
2018-12-16T19:01:02.238Z,3.90
2018-12-16T19:03:30.607Z,3.90
2018-12-16T19:05:59.349Z,3.90
2018-12-16T19:08:28.066Z,4.00
2018-12-16T19:10:56.950Z,4.00
2018-12-16T19:13:25.287Z,4.00
2018-12-16T19:15:54.637Z,4.00
2018-12-16T19:18:25.012Z,4.00
2018-12-16T19:20:53.414Z,4.00
2018-12-16T19:23:22.193Z,4.00
2018-12-16T19:25:51.493Z,4.10
2018-12-16T19:28:19.982Z,4.10
2018-12-16T19:30:48.615Z,4.00
2018-12-16T19:33:18.414Z,4.00
2018-12-16T19:35:47.378Z,4.10
2018-12-16T19:38:16.421Z,4.00
2018-12-16T19:40:44.772Z,4.10
2018-12-16T19:43:13.425Z,4.10
2018-12-16T19:45:42.302Z,4.10
2018-12-16T19:48:12.526Z,4.00
2018-12-16T19:50:41.806Z,4.00
2018-12-16T19:53:11.324Z,4.00
2018-12-16T19:55:49.961Z,4.00
2018-12-16T19:58:19.831Z,4.00
2018-12-16T20:00:53.295Z,4.00
2018-12-16T20:03:25.517Z,4.00
2018-12-16T20:05:59.687Z,4.00
2018-12-16T20:08:31.745Z,4.00
2018-12-16T20:11:00.119Z,4.00
2018-12-16T20:13:29.047Z,4.00
2018-12-16T20:16:01.490Z,4.00
2018-12-16T20:18:28.458Z,4.00
2018-12-16T20:20:57.081Z,4.00
2018-12-16T20:23:28.559Z,4.00
2018-12-16T20:25:56.943Z,4.00
2018-12-16T20:28:26.273Z,3.90
2018-12-16T20:30:55.272Z,3.90
2018-12-16T20:33:23.668Z,3.90
2018-12-16T20:35:52.550Z,3.90
2018-12-16T20:38:24.717Z,3.90
2018-12-16T20:40:53.623Z,3.80
2018-12-16T20:43:22.018Z,3.80
2018-12-16T20:45:50.912Z,3.80
2018-12-16T20:48:19.401Z,3.80
2018-12-16T20:50:50.958Z,3.80
2018-12-16T20:53:20.228Z,3.80
2018-12-16T20:55:49.324Z,3.80
2018-12-16T20:58:17.839Z,3.80
2018-12-16T21:00:47.237Z,3.80
2018-12-16T21:03:16.816Z,3.80
2018-12-16T21:05:45.383Z,3.80
2018-12-16T21:08:13.720Z,3.80
2018-12-16T21:10:43.608Z,3.80
2018-12-16T21:15:22.982Z,3.80
2018-12-16T21:18:00.367Z,3.80
2018-12-16T21:29:13.265Z,3.70
2018-12-16T21:31:42.474Z,3.80
2018-12-16T21:34:10.831Z,3.70
2018-12-16T21:36:39.235Z,3.70
2018-12-16T21:39:08.198Z,3.70
2018-12-16T21:41:37.017Z,3.70
2018-12-16T21:44:06.340Z,3.70
2018-12-16T21:46:35.183Z,3.60
2018-12-16T21:49:03.561Z,3.60
2018-12-16T21:51:32.117Z,3.70
2018-12-16T21:54:03.708Z,3.70
2018-12-16T21:56:35.873Z,3.60
2018-12-16T21:59:04.719Z,3.60
2018-12-16T22:01:34.159Z,3.60
2018-12-16T22:04:02.892Z,3.60
2018-12-16T22:06:31.481Z,3.50
2018-12-16T22:09:00.132Z,3.50
2018-12-16T22:11:29.218Z,3.50
2018-12-16T22:13:58.194Z,3.50
2018-12-16T22:16:26.697Z,3.50
2018-12-16T22:18:55.371Z,3.50
2018-12-16T22:21:24.192Z,3.50
2018-12-16T22:23:52.678Z,3.40
2018-12-16T22:26:21.335Z,3.50
2018-12-16T22:28:49.941Z,3.50
2018-12-16T22:31:18.340Z,3.50
2018-12-16T22:33:54.055Z,3.40
2018-12-16T22:36:22.436Z,3.40
2018-12-16T22:38:51.033Z,3.40
2018-12-16T22:41:19.866Z,3.40
2018-12-16T22:43:48.641Z,3.40
2018-12-16T22:46:17.257Z,3.40
2018-12-16T22:48:46.036Z,3.50
2018-12-16T22:51:14.863Z,3.50
2018-12-16T22:53:43.276Z,3.40
2018-12-16T22:56:11.816Z,3.40
2018-12-16T22:58:41.293Z,3.50
2018-12-16T23:01:17.292Z,3.40
2018-12-16T23:03:46.701Z,3.40
2018-12-16T23:06:18.546Z,3.50
2018-12-16T23:08:47.126Z,3.40
2018-12-16T23:11:19.481Z,3.40
2018-12-16T23:13:48.016Z,3.40
2018-12-16T23:16:22.170Z,3.50
2018-12-16T23:18:50.728Z,3.50
2018-12-16T23:21:20.087Z,3.50
2018-12-16T23:23:48.733Z,3.50
2018-12-16T23:26:17.953Z,3.40
2018-12-16T23:28:47.447Z,3.50
2018-12-16T23:31:15.823Z,3.40
2018-12-16T23:33:44.190Z,3.40
2018-12-16T23:36:12.543Z,3.40
2018-12-16T23:38:40.864Z,3.40
2018-12-16T23:41:09.289Z,3.40
2018-12-16T23:43:38.411Z,3.40
2018-12-16T23:46:06.812Z,3.40
2018-12-16T23:48:35.170Z,3.40
2018-12-16T23:51:03.526Z,3.30
2018-12-16T23:53:31.911Z,3.30
2018-12-16T23:59:00.616Z,3.30
